createdAt,value
2018-07-03T00:01:09.257Z,74.50
2018-07-03T00:03:37.555Z,74.70
2018-07-03T00:06:05.973Z,74.60
2018-07-03T00:08:34.279Z,74.80
2018-07-03T00:11:02.571Z,74.90
2018-07-03T00:13:30.958Z,75.00
2018-07-03T00:15:59.272Z,74.50
2018-07-03T00:18:27.642Z,75.40
2018-07-03T00:20:56.149Z,75.50
2018-07-03T00:23:24.516Z,75.90
2018-07-03T00:25:52.861Z,76.00
2018-07-03T00:28:21.137Z,77.00
2018-07-03T00:30:49.420Z,76.50
2018-07-03T00:33:17.720Z,76.60
2018-07-03T00:35:46.039Z,77.00
2018-07-03T00:38:14.299Z,77.00
2018-07-03T00:40:42.606Z,77.30
2018-07-03T00:43:10.943Z,77.50
2018-07-03T00:45:39.293Z,77.90
2018-07-03T00:48:07.765Z,78.10
2018-07-03T00:50:36.099Z,78.20
2018-07-03T00:53:04.459Z,78.60
2018-07-03T00:55:32.996Z,78.50
2018-07-03T00:58:01.703Z,78.90
2018-07-03T01:00:33.191Z,78.90
2018-07-03T01:03:02.230Z,78.80
2018-07-03T01:05:30.529Z,78.70
2018-07-03T01:07:59.062Z,79.00
2018-07-03T01:10:27.706Z,79.00
2018-07-03T01:12:56.622Z,79.20
2018-07-03T01:15:25.768Z,79.20
2018-07-03T01:17:54.113Z,79.50
2018-07-03T01:20:22.493Z,79.50
2018-07-03T01:22:50.864Z,80.00
2018-07-03T01:25:19.193Z,79.20
2018-07-03T01:27:47.508Z,79.50
2018-07-03T01:30:15.781Z,79.50
2018-07-03T01:32:44.073Z,79.60
2018-07-03T01:35:12.452Z,79.50
2018-07-03T01:37:40.870Z,79.60
2018-07-03T01:40:09.277Z,79.60
2018-07-03T01:42:37.590Z,79.70
2018-07-03T01:45:05.922Z,79.70
2018-07-03T01:47:34.236Z,79.90
2018-07-03T01:50:02.620Z,80.10
2018-07-03T01:52:30.994Z,80.00
2018-07-03T01:54:59.288Z,80.10
2018-07-03T01:57:27.600Z,80.20
2018-07-03T01:59:55.907Z,80.30
2018-07-03T02:02:24.202Z,80.30
2018-07-03T02:04:52.503Z,80.30
2018-07-03T02:07:20.822Z,80.60
2018-07-03T02:09:49.138Z,80.70
2018-07-03T02:12:17.431Z,80.90
2018-07-03T02:14:45.717Z,81.10
2018-07-03T02:17:14.302Z,81.10
2018-07-03T02:19:42.677Z,81.20
2018-07-03T02:22:10.981Z,81.30
2018-07-03T02:24:39.311Z,81.40
2018-07-03T02:29:35.687Z,81.70
2018-07-03T02:32:04.023Z,82.00
2018-07-03T02:34:32.401Z,81.80
2018-07-03T02:37:00.668Z,82.10
2018-07-03T02:39:28.985Z,82.30
2018-07-03T02:41:57.308Z,82.60
2018-07-03T02:44:25.646Z,82.80
2018-07-03T02:46:53.966Z,82.70
2018-07-03T02:49:22.349Z,82.80
2018-07-03T02:51:50.810Z,83.00
2018-07-03T02:54:19.225Z,83.20
2018-07-03T02:56:47.513Z,83.10
2018-07-03T02:59:15.916Z,83.30
2018-07-03T03:01:44.234Z,83.40
2018-07-03T03:04:12.544Z,83.60
2018-07-03T03:06:40.923Z,83.80
2018-07-03T03:09:11.121Z,83.80
2018-07-03T03:11:39.433Z,84.00
2018-07-03T03:14:07.763Z,84.30
2018-07-03T03:16:36.152Z,84.40
2018-07-03T03:19:04.463Z,84.30
2018-07-03T03:21:32.797Z,84.50
2018-07-03T03:24:01.225Z,84.70
2018-07-03T03:26:29.616Z,84.80
2018-07-03T03:28:58.105Z,84.80
2018-07-03T03:31:26.533Z,85.30
2018-07-03T03:33:54.914Z,85.10
2018-07-03T03:36:23.214Z,85.30
2018-07-03T03:38:51.574Z,85.50
2018-07-03T03:41:19.970Z,85.80
2018-07-03T03:43:48.291Z,85.80
2018-07-03T03:46:16.726Z,86.00
2018-07-03T03:48:45.030Z,86.00
2018-07-03T03:51:13.364Z,86.70
2018-07-03T03:53:41.743Z,85.90
2018-07-03T03:56:10.051Z,86.00
2018-07-03T03:58:38.428Z,85.90
2018-07-03T04:01:06.772Z,85.80
2018-07-03T04:03:35.124Z,86.00
2018-07-03T04:06:03.470Z,86.00
2018-07-03T04:08:31.942Z,86.20
2018-07-03T04:11:00.304Z,86.20
2018-07-03T04:13:28.552Z,86.40
2018-07-03T04:15:56.877Z,86.40
2018-07-03T04:18:29.656Z,86.50
2018-07-03T04:20:57.940Z,86.40
2018-07-03T04:23:26.385Z,86.30
2018-07-03T04:25:54.722Z,86.50
2018-07-03T04:28:23.072Z,86.60
2018-07-03T04:30:51.631Z,86.60
2018-07-03T04:33:20.103Z,86.50
2018-07-03T04:35:48.484Z,87.30
2018-07-03T04:38:16.842Z,86.40
2018-07-03T04:40:45.199Z,87.20
2018-07-03T04:43:13.564Z,86.20
2018-07-03T04:45:42.310Z,86.10
2018-07-03T04:48:10.656Z,86.10
2018-07-03T04:50:39.028Z,85.90
2018-07-03T04:53:07.542Z,86.10
2018-07-03T04:55:35.900Z,85.70
2018-07-03T04:58:04.290Z,85.90
2018-07-03T05:00:32.633Z,85.80
2018-07-03T05:03:01.229Z,85.60
2018-07-03T05:10:51.118Z,85.40
2018-07-03T05:13:19.434Z,85.50
2018-07-03T05:15:47.717Z,85.10
2018-07-03T05:18:16.029Z,84.90
2018-07-03T05:23:12.440Z,84.70
2018-07-03T05:25:40.768Z,84.30
2018-07-03T05:28:09.077Z,84.10
2018-07-03T05:30:37.431Z,84.00
2018-07-03T05:33:06.182Z,84.00
2018-07-03T05:35:34.648Z,83.60
2018-07-03T05:38:02.892Z,83.20
2018-07-03T05:40:31.398Z,83.40
2018-07-03T05:42:59.803Z,83.20
2018-07-03T05:45:28.136Z,82.80
2018-07-03T05:47:56.489Z,82.40
2018-07-03T05:50:24.786Z,82.20
2018-07-03T05:52:53.211Z,82.10
2018-07-03T05:55:21.602Z,82.10
2018-07-03T05:57:49.888Z,81.20
2018-07-03T06:02:46.247Z,81.10
2018-07-03T06:05:14.655Z,80.70
2018-07-03T06:07:42.927Z,80.20
2018-07-03T06:10:11.243Z,79.60
2018-07-03T06:12:39.638Z,79.60
2018-07-03T06:15:08.031Z,79.80
2018-07-03T06:17:36.448Z,79.50
2018-07-03T06:20:05.505Z,78.90
2018-07-03T06:22:33.948Z,78.60
2018-07-03T06:25:02.273Z,78.30
2018-07-03T06:27:30.652Z,78.00
2018-07-03T06:29:58.925Z,78.00
2018-07-03T06:32:27.288Z,78.30
2018-07-03T06:34:55.583Z,77.20
2018-07-03T06:37:23.923Z,76.60
2018-07-03T06:39:52.390Z,76.90
2018-07-03T06:42:20.569Z,76.60
2018-07-03T06:44:48.891Z,75.90
2018-07-03T06:47:17.278Z,75.60
2018-07-03T06:49:45.759Z,75.50
2018-07-03T06:52:14.110Z,75.00
2018-07-03T06:54:42.429Z,74.80
2018-07-03T06:57:11.047Z,74.50
2018-07-03T06:59:39.332Z,74.30
2018-07-03T07:02:07.621Z,73.80
2018-07-03T07:07:03.975Z,73.70
2018-07-03T07:09:32.514Z,72.80
2018-07-03T07:12:00.736Z,72.20
2018-07-03T07:14:29.055Z,72.00
2018-07-03T07:16:57.340Z,72.20
2018-07-03T07:19:25.639Z,72.00
2018-07-03T07:21:53.935Z,71.40
2018-07-03T07:24:22.209Z,71.90
2018-07-03T07:26:50.494Z,71.60
2018-07-03T07:29:18.811Z,71.10
2018-07-03T07:31:47.560Z,70.90
2018-07-03T07:34:15.845Z,71.10
2018-07-03T07:36:44.208Z,70.20
2018-07-03T07:39:13.119Z,69.60
2018-07-03T07:41:42.104Z,69.80
2018-07-03T07:44:10.452Z,69.80
2018-07-03T07:46:38.803Z,69.70
2018-07-03T07:49:07.380Z,69.90
2018-07-03T07:51:35.721Z,69.60
2018-07-03T07:54:04.057Z,68.60
2018-07-03T07:56:32.500Z,67.10
2018-07-03T07:59:00.843Z,65.90
2018-07-03T08:01:29.204Z,66.10
2018-07-03T08:03:57.529Z,65.50
2018-07-03T08:06:25.855Z,65.60
2018-07-03T08:08:54.212Z,64.80
2018-07-03T08:11:23.100Z,63.20
2018-07-03T08:13:51.656Z,61.30
2018-07-03T08:16:19.987Z,60.50
2018-07-03T08:18:48.357Z,60.70
2018-07-03T08:21:16.676Z,61.60
2018-07-03T08:23:44.998Z,59.60
2018-07-03T08:26:13.336Z,59.60
2018-07-03T08:28:41.706Z,59.40
2018-07-03T08:31:09.987Z,59.20
2018-07-03T08:33:38.327Z,60.30
2018-07-03T08:36:06.644Z,60.70
2018-07-03T08:38:35.160Z,59.90
2018-07-03T08:41:03.494Z,57.70
2018-07-03T08:43:31.794Z,57.90
2018-07-03T08:46:00.149Z,57.70
2018-07-03T08:48:28.539Z,57.60
2018-07-03T08:50:57.441Z,58.10
2018-07-03T08:53:25.762Z,57.30
2018-07-03T08:55:54.130Z,57.30
2018-07-03T08:58:22.501Z,55.60
2018-07-03T09:00:51.007Z,54.60
2018-07-03T09:03:19.276Z,54.90
2018-07-03T09:05:47.715Z,54.90
2018-07-03T09:08:16.045Z,53.80
